sensor_id;sensor_type;location;lat;lon;timestamp;pressure;altitude;pressure_sealevel;temperature;humidity
58771;BME280;44539;42.962;1.596;2023-02-20T11:26:30;97774.41;;;14.60;49.40
58771;BME280;44539;42.962;1.596;2023-02-20T11:29:01;97768.97;;;14.83;48.84
58771;BME280;44539;42.962;1.596;2023-02-20T11:31:28;97769.69;;;14.92;48.47
58771;BME280;44539;42.962;1.596;2023-02-20T11:33:54;97768.38;;;15.03;48.54
58771;BME280;44539;42.962;1.596;2023-02-20T11:36:26;97757.09;;;15.07;48.21
58771;BME280;44539;42.962;1.596;2023-02-20T11:38:58;97758.44;;;15.18;48.13
58771;BME280;44539;42.962;1.596;2023-02-20T11:41:30;97755.66;;;15.26;47.50
58771;BME280;44539;42.962;1.596;2023-02-20T11:44:16;97748.97;;;15.37;45.52
58771;BME280;44539;42.962;1.596;2023-02-20T11:46:43;97746.69;;;15.56;45.55
58771;BME280;44539;42.962;1.596;2023-02-20T11:49:10;97740.88;;;15.74;45.55
58771;BME280;44539;42.962;1.596;2023-02-20T11:51:44;97735.38;;;15.82;44.67
58771;BME280;44539;42.962;1.596;2023-02-20T11:56:59;97719.94;;;16.12;43.12
58771;BME280;44539;42.962;1.596;2023-02-20T11:59:30;97716.47;;;16.18;43.18
58771;BME280;44539;42.962;1.596;2023-02-20T12:10:38;97696.84;;;17.07;43.58
58771;BME280;44539;42.962;1.596;2023-02-20T12:13:10;97686.97;;;17.34;43.45
58771;BME280;44539;42.962;1.596;2023-02-20T12:15:36;97690.69;;;17.40;46.24
58771;BME280;44539;42.962;1.596;2023-02-20T12:21:03;97675.41;;;17.14;47.37
58771;BME280;44539;42.962;1.596;2023-02-20T12:24:00;97673.97;;;17.45;45.63
58771;BME280;44539;42.962;1.596;2023-02-20T12:26:40;97667.16;;;17.49;46.30
58771;BME280;44539;42.962;1.596;2023-02-20T12:32:31;97656.81;;;17.72;46.05
58771;BME280;44539;42.962;1.596;2023-02-20T12:42:59;97637.75;;;18.01;45.92
58771;BME280;44539;42.962;1.596;2023-02-20T12:51:53;97623.81;;;18.37;45.09
58771;BME280;44539;42.962;1.596;2023-02-20T12:59:56;97617.06;;;18.60;42.78
58771;BME280;44539;42.962;1.596;2023-02-20T13:02:34;97614.00;;;18.49;43.65
58771;BME280;44539;42.962;1.596;2023-02-20T13:05:01;97607.84;;;18.42;42.84
58771;BME280;44539;42.962;1.596;2023-02-20T13:07:36;97601.28;;;18.70;42.33
58771;BME280;44539;42.962;1.596;2023-02-20T13:10:12;97602.03;;;19.15;41.59
58771;BME280;44539;42.962;1.596;2023-02-20T13:12:38;97598.19;;;19.30;40.87
58771;BME280;44539;42.962;1.596;2023-02-20T13:18:13;97582.97;;;19.42;39.98
58771;BME280;44539;42.962;1.596;2023-02-20T13:20:32;97571.44;;;19.97;40.63
58771;BME280;44539;42.962;1.596;2023-02-20T13:23:23;97575.41;;;20.13;39.38
58771;BME280;44539;42.962;1.596;2023-02-20T13:25:50;97563.38;;;19.78;39.15
58771;BME280;44539;42.962;1.596;2023-02-20T13:31:14;97566.25;;;20.14;38.35
58771;BME280;44539;42.962;1.596;2023-02-20T13:33:43;97562.66;;;20.38;38.50
58771;BME280;44539;42.962;1.596;2023-02-20T13:55:19;97557.00;;;22.07;35.46
58771;BME280;44539;42.962;1.596;2023-02-20T13:58:00;97550.69;;;22.41;35.43
58771;BME280;44539;42.962;1.596;2023-02-20T14:03:12;97549.75;;;22.65;32.91
58771;BME280;44539;42.962;1.596;2023-02-20T14:05:38;97547.72;;;23.00;33.62
58771;BME280;44539;42.962;1.596;2023-02-20T14:08:04;97551.41;;;23.11;32.65
58771;BME280;44539;42.962;1.596;2023-02-20T14:10:35;97548.63;;;22.77;32.33
58771;BME280;44539;42.962;1.596;2023-02-20T14:15:27;97533.66;;;23.20;31.59
58771;BME280;44539;42.962;1.596;2023-02-20T14:17:53;97547.22;;;23.03;32.74
58771;BME280;44539;42.962;1.596;2023-02-20T14:20:23;97546.03;;;23.50;30.92
58771;BME280;44539;42.962;1.596;2023-02-20T14:23:08;97543.47;;;23.60;32.27
58771;BME280;44539;42.962;1.596;2023-02-20T14:25:34;97529.47;;;24.08;30.84
58771;BME280;44539;42.962;1.596;2023-02-20T14:28:12;97530.75;;;24.22;29.23
58771;BME280;44539;42.962;1.596;2023-02-20T14:30:38;97522.59;;;24.22;30.57
58771;BME280;44539;42.962;1.596;2023-02-20T14:33:20;97520.16;;;23.98;30.27
58771;BME280;44539;42.962;1.596;2023-02-20T14:38:31;97523.66;;;24.70;29.42
58771;BME280;44539;42.962;1.596;2023-02-20T14:40:59;97522.75;;;24.92;29.41
58771;BME280;44539;42.962;1.596;2023-02-20T14:43:26;97518.66;;;24.84;28.79
58771;BME280;44539;42.962;1.596;2023-02-20T14:46:04;97517.66;;;25.27;28.61
58771;BME280;44539;42.962;1.596;2023-02-20T14:48:38;97520.25;;;25.17;29.71
58771;BME280;44539;42.962;1.596;2023-02-20T14:51:22;97517.41;;;25.34;28.88
58771;BME280;44539;42.962;1.596;2023-02-20T14:56:42;97512.88;;;25.45;28.83
58771;BME280;44539;42.962;1.596;2023-02-20T15:02:25;97517.34;;;25.24;29.72
58771;BME280;44539;42.962;1.596;2023-02-20T15:05:01;97509.25;;;25.34;30.16
58771;BME280;44539;42.962;1.596;2023-02-20T15:07:28;97510.53;;;25.64;29.90
58771;BME280;44539;42.962;1.596;2023-02-20T15:09:57;97502.69;;;25.25;29.82
58771;BME280;44539;42.962;1.596;2023-02-20T15:12:30;97506.53;;;25.34;31.00
58771;BME280;44539;42.962;1.596;2023-02-20T15:15:11;97498.59;;;25.75;29.55
58771;BME280;44539;42.962;1.596;2023-02-20T15:17:42;97495.66;;;25.29;29.34
58771;BME280;44539;42.962;1.596;2023-02-20T15:20:19;97493.97;;;25.71;29.46
58771;BME280;44539;42.962;1.596;2023-02-20T15:25:45;97490.56;;;25.91;29.54
58771;BME280;44539;42.962;1.596;2023-02-20T15:34:00;97493.66;;;26.15;30.03
58771;BME280;44539;42.962;1.596;2023-02-20T15:36:26;97496.69;;;26.34;29.39
58771;BME280;44539;42.962;1.596;2023-02-20T15:38:52;97498.16;;;26.72;29.68
58771;BME280;44539;42.962;1.596;2023-02-20T15:41:18;97503.28;;;26.53;29.43
58771;BME280;44539;42.962;1.596;2023-02-20T15:43:48;97495.44;;;26.82;28.17
58771;BME280;44539;42.962;1.596;2023-02-20T15:46:17;97490.25;;;26.76;29.05
58771;BME280;44539;42.962;1.596;2023-02-20T15:48:43;97481.81;;;26.82;28.79
58771;BME280;44539;42.962;1.596;2023-02-20T15:51:09;97482.84;;;27.48;28.18
58771;BME280;44539;42.962;1.596;2023-02-20T15:53:36;97487.78;;;27.31;28.44
58771;BME280;44539;42.962;1.596;2023-02-20T15:56:03;97478.81;;;27.04;28.91
58771;BME280;44539;42.962;1.596;2023-02-20T15:58:35;97481.25;;;27.37;28.25
58771;BME280;44539;42.962;1.596;2023-02-20T16:01:11;97484.25;;;27.09;28.48
58771;BME280;44539;42.962;1.596;2023-02-20T16:03:36;97482.88;;;27.17;27.91
58771;BME280;44539;42.962;1.596;2023-02-20T16:06:02;97476.81;;;26.38;29.07
58771;BME280;44539;42.962;1.596;2023-02-20T16:08:28;97478.13;;;26.15;29.66
58771;BME280;44539;42.962;1.596;2023-02-20T16:10:54;97470.25;;;26.24;30.44
58771;BME280;44539;42.962;1.596;2023-02-20T16:15:48;97474.28;;;26.06;30.75
58771;BME280;44539;42.962;1.596;2023-02-20T16:18:14;97469.72;;;26.32;30.59
58771;BME280;44539;42.962;1.596;2023-02-20T16:20:39;97473.63;;;26.57;29.94
58771;BME280;44539;42.962;1.596;2023-02-20T16:23:05;97462.34;;;26.17;30.23
58771;BME280;44539;42.962;1.596;2023-02-20T16:25:33;97465.09;;;26.22;30.26
58771;BME280;44539;42.962;1.596;2023-02-20T16:27:59;97472.13;;;26.13;30.72
58771;BME280;44539;42.962;1.596;2023-02-20T16:30:29;97466.56;;;25.82;31.57
58771;BME280;44539;42.962;1.596;2023-02-20T16:32:55;97472.88;;;25.93;31.13
58771;BME280;44539;42.962;1.596;2023-02-20T16:35:21;97465.50;;;25.36;31.81
58771;BME280;44539;42.962;1.596;2023-02-20T16:37:46;97480.53;;;24.79;32.26
58771;BME280;44539;42.962;1.596;2023-02-20T16:40:12;97473.06;;;24.10;33.09
58771;BME280;44539;42.962;1.596;2023-02-20T16:42:39;97468.22;;;22.78;35.35
58771;BME280;44539;42.962;1.596;2023-02-20T16:47:34;97476.25;;;21.87;36.66
58771;BME280;44539;42.962;1.596;2023-02-20T16:50:00;97475.41;;;20.14;37.39
58771;BME280;44539;42.962;1.596;2023-02-20T16:52:32;97471.06;;;19.03;39.70
58771;BME280;44539;42.962;1.596;2023-02-20T16:54:58;97473.94;;;18.83;41.75
58771;BME280;44539;42.962;1.596;2023-02-20T16:57:24;97470.59;;;18.55;42.64
58771;BME280;44539;42.962;1.596;2023-02-20T16:59:53;97470.22;;;18.13;44.27
58771;BME280;44539;42.962;1.596;2023-02-20T17:02:25;97471.06;;;17.69;46.82
58771;BME280;44539;42.962;1.596;2023-02-20T17:04:51;97476.81;;;17.01;47.90
58771;BME280;44539;42.962;1.596;2023-02-20T17:07:17;97471.00;;;16.57;49.62
58771;BME280;44539;42.962;1.596;2023-02-20T17:09:43;97467.44;;;16.30;50.35
58771;BME280;44539;42.962;1.596;2023-02-20T17:12:09;97478.09;;;15.97;51.38
58771;BME280;44539;42.962;1.596;2023-02-20T17:14:35;97476.75;;;15.31;54.71
58771;BME280;44539;42.962;1.596;2023-02-20T17:17:00;97479.16;;;15.19;53.45
58771;BME280;44539;42.962;1.596;2023-02-20T17:19:26;97475.63;;;14.84;54.43
58771;BME280;44539;42.962;1.596;2023-02-20T17:21:51;97485.19;;;14.50;55.42
58771;BME280;44539;42.962;1.596;2023-02-20T17:24:18;97478.84;;;14.29;56.37
58771;BME280;44539;42.962;1.596;2023-02-20T17:26:44;97487.19;;;13.68;59.04
58771;BME280;44539;42.962;1.596;2023-02-20T17:29:11;97488.22;;;13.23;60.40
58771;BME280;44539;42.962;1.596;2023-02-20T17:31:36;97486.94;;;13.19;60.36
58771;BME280;44539;42.962;1.596;2023-02-20T17:34:03;97490.50;;;13.11;60.42
58771;BME280;44539;42.962;1.596;2023-02-20T17:36:29;97498.00;;;12.93;61.14
58771;BME280;44539;42.962;1.596;2023-02-20T17:38:55;97492.53;;;12.71;62.35
58771;BME280;44539;42.962;1.596;2023-02-20T17:41:21;97492.16;;;12.59;63.49
58771;BME280;44539;42.962;1.596;2023-02-20T17:43:46;97502.75;;;12.21;64.67
58771;BME280;44539;42.962;1.596;2023-02-20T17:46:11;97502.03;;;12.04;65.45
58771;BME280;44539;42.962;1.596;2023-02-20T17:48:39;97503.63;;;11.82;67.78
58771;BME280;44539;42.962;1.596;2023-02-20T17:51:05;97503.41;;;11.61;68.26
58771;BME280;44539;42.962;1.596;2023-02-20T17:53:31;97502.00;;;11.34;69.19
58771;BME280;44539;42.962;1.596;2023-02-20T17:55:57;97508.81;;;11.28;69.25
58771;BME280;44539;42.962;1.596;2023-02-20T17:58:22;97513.34;;;11.19;69.59
58771;BME280;44539;42.962;1.596;2023-02-20T18:00:47;97508.06;;;11.03;70.31
58771;BME280;44539;42.962;1.596;2023-02-20T18:03:13;97509.22;;;11.00;70.68
58771;BME280;44539;42.962;1.596;2023-02-20T18:05:38;97521.72;;;10.83;72.16
58771;BME280;44539;42.962;1.596;2023-02-20T18:08:04;97518.41;;;10.73;72.25
58771;BME280;44539;42.962;1.596;2023-02-20T18:10:29;97512.44;;;10.63;73.21
58771;BME280;44539;42.962;1.596;2023-02-20T18:12:55;97512.13;;;10.50;73.43
58771;BME280;44539;42.962;1.596;2023-02-20T18:15:34;97514.38;;;10.20;74.81
58771;BME280;44539;42.962;1.596;2023-02-20T18:18:01;97516.06;;;10.29;74.31
58771;BME280;44539;42.962;1.596;2023-02-20T18:20:27;97518.34;;;10.08;76.15
58771;BME280;44539;42.962;1.596;2023-02-20T18:22:54;97517.63;;;9.89;76.99
58771;BME280;44539;42.962;1.596;2023-02-20T18:25:20;97517.06;;;9.69;78.59
58771;BME280;44539;42.962;1.596;2023-02-20T18:27:46;97519.69;;;9.61;78.54
58771;BME280;44539;42.962;1.596;2023-02-20T18:30:13;97517.56;;;9.65;78.58
58771;BME280;44539;42.962;1.596;2023-02-20T18:32:39;97519.50;;;9.54;79.04
58771;BME280;44539;42.962;1.596;2023-02-20T18:35:05;97514.69;;;9.58;79.06
58771;BME280;44539;42.962;1.596;2023-02-20T18:37:30;97516.25;;;9.34;80.02
58771;BME280;44539;42.962;1.596;2023-02-20T18:39:56;97516.06;;;9.28;80.49
58771;BME280;44539;42.962;1.596;2023-02-20T18:42:21;97515.31;;;9.09;81.16
58771;BME280;44539;42.962;1.596;2023-02-20T18:44:47;97515.94;;;9.03;81.67
58771;BME280;44539;42.962;1.596;2023-02-20T18:47:14;97505.84;;;9.07;81.73
58771;BME280;44539;42.962;1.596;2023-02-20T18:49:39;97512.75;;;8.99;82.27
58771;BME280;44539;42.962;1.596;2023-02-20T18:52:05;97509.91;;;8.93;82.81
58771;BME280;44539;42.962;1.596;2023-02-20T18:54:30;97505.97;;;8.71;84.15
58771;BME280;44539;42.962;1.596;2023-02-20T18:57:00;97507.41;;;8.65;84.28
58771;BME280;44539;42.962;1.596;2023-02-20T18:59:26;97508.69;;;8.61;84.61
58771;BME280;44539;42.962;1.596;2023-02-20T19:01:53;97499.25;;;8.58;83.61
58771;BME280;44539;42.962;1.596;2023-02-20T19:04:19;97504.84;;;8.37;84.79
58771;BME280;44539;42.962;1.596;2023-02-20T19:06:45;97500.53;;;8.18;86.16
58771;BME280;44539;42.962;1.596;2023-02-20T19:09:22;97497.06;;;8.18;86.00
58771;BME280;44539;42.962;1.596;2023-02-20T19:11:52;97499.09;;;8.06;86.85
58771;BME280;44539;42.962;1.596;2023-02-20T19:14:18;97493.78;;;7.88;88.15
58771;BME280;44539;42.962;1.596;2023-02-20T19:16:55;97504.69;;;7.85;88.19
58771;BME280;44539;42.962;1.596;2023-02-20T19:19:23;97497.75;;;7.74;89.26
58771;BME280;44539;42.962;1.596;2023-02-20T19:21:49;97488.22;;;7.64;89.26
58771;BME280;44539;42.962;1.596;2023-02-20T19:24:15;97493.69;;;7.62;89.73
58771;BME280;44539;42.962;1.596;2023-02-20T19:26:41;97497.94;;;7.45;90.79
58771;BME280;44539;42.962;1.596;2023-02-20T19:29:07;97495.31;;;7.45;90.60
58771;BME280;44539;42.962;1.596;2023-02-20T19:31:33;97489.34;;;7.43;90.26
58771;BME280;44539;42.962;1.596;2023-02-20T19:33:59;97497.25;;;7.43;90.26
58771;BME280;44539;42.962;1.596;2023-02-20T19:36:24;97498.22;;;7.42;90.56
58771;BME280;44539;42.962;1.596;2023-02-20T19:38:50;97493.84;;;7.33;90.57
58771;BME280;44539;42.962;1.596;2023-02-20T19:41:15;97490.56;;;7.21;91.43
58771;BME280;44539;42.962;1.596;2023-02-20T19:43:42;97484.88;;;7.16;91.33
58771;BME280;44539;42.962;1.596;2023-02-20T19:46:19;97496.44;;;7.05;92.20
58771;BME280;44539;42.962;1.596;2023-02-20T19:48:46;97504.38;;;6.95;93.75
58771;BME280;44539;42.962;1.596;2023-02-20T19:51:14;97499.97;;;6.86;93.95
58771;BME280;44539;42.962;1.596;2023-02-20T19:53:40;97507.22;;;6.84;93.82
58771;BME280;44539;42.962;1.596;2023-02-20T19:56:06;97501.66;;;6.87;93.97
58771;BME280;44539;42.962;1.596;2023-02-20T19:58:33;97500.09;;;7.04;93.48
58771;BME280;44539;42.962;1.596;2023-02-20T20:01:01;97501.97;;;7.12;93.00
58771;BME280;44539;42.962;1.596;2023-02-20T20:03:26;97502.66;;;7.14;92.00
58771;BME280;44539;42.962;1.596;2023-02-20T20:05:52;97508.13;;;7.03;91.60
58771;BME280;44539;42.962;1.596;2023-02-20T20:08:17;97504.31;;;6.87;92.59
58771;BME280;44539;42.962;1.596;2023-02-20T20:10:43;97500.53;;;6.90;91.17
58771;BME280;44539;42.962;1.596;2023-02-20T20:13:08;97501.97;;;6.74;92.47
58771;BME280;44539;42.962;1.596;2023-02-20T20:15:34;97498.22;;;6.77;91.74
58771;BME280;44539;42.962;1.596;2023-02-20T20:18:01;97505.59;;;6.54;93.31
58771;BME280;44539;42.962;1.596;2023-02-20T20:20:28;97507.16;;;6.27;94.97
58771;BME280;44539;42.962;1.596;2023-02-20T20:22:56;97504.09;;;6.22;95.39
58771;BME280;44539;42.962;1.596;2023-02-20T20:25:23;97499.53;;;6.05;97.11
58771;BME280;44539;42.962;1.596;2023-02-20T20:27:49;97497.66;;;5.86;98.22
58771;BME280;44539;42.962;1.596;2023-02-20T20:30:18;97491.69;;;5.84;98.69
58771;BME280;44539;42.962;1.596;2023-02-20T20:32:46;97498.91;;;5.82;99.19
58771;BME280;44539;42.962;1.596;2023-02-20T20:35:14;97494.75;;;5.79;98.98
58771;BME280;44539;42.962;1.596;2023-02-20T20:37:39;97498.50;;;5.77;99.00
58771;BME280;44539;42.962;1.596;2023-02-20T20:40:05;97495.84;;;5.67;99.65
58771;BME280;44539;42.962;1.596;2023-02-20T20:42:32;97487.97;;;5.77;99.78
58771;BME280;44539;42.962;1.596;2023-02-20T20:44:58;97491.13;;;5.80;98.47
58771;BME280;44539;42.962;1.596;2023-02-20T20:47:26;97499.72;;;5.63;99.56
58771;BME280;44539;42.962;1.596;2023-02-20T20:49:52;97504.00;;;5.54;100.00
58771;BME280;44539;42.962;1.596;2023-02-20T20:52:19;97500.25;;;5.57;100.00
58771;BME280;44539;42.962;1.596;2023-02-20T20:54:49;97494.53;;;5.42;100.00
58771;BME280;44539;42.962;1.596;2023-02-20T20:57:17;97495.91;;;5.36;100.00
58771;BME280;44539;42.962;1.596;2023-02-20T20:59:43;97497.97;;;5.32;100.00
58771;BME280;44539;42.962;1.596;2023-02-20T21:02:10;97498.13;;;5.41;100.00
58771;BME280;44539;42.962;1.596;2023-02-20T21:04:36;97497.59;;;5.47;100.00
58771;BME280;44539;42.962;1.596;2023-02-20T21:07:01;97502.03;;;5.46;100.00
58771;BME280;44539;42.962;1.596;2023-02-20T21:09:26;97495.69;;;5.59;98.79
58771;BME280;44539;42.962;1.596;2023-02-20T21:11:52;97495.91;;;5.36;100.00
58771;BME280;44539;42.962;1.596;2023-02-20T21:14:17;97496.16;;;5.23;100.00
58771;BME280;44539;42.962;1.596;2023-02-20T21:16:43;97495.22;;;5.34;100.00
58771;BME280;44539;42.962;1.596;2023-02-20T21:19:09;97496.31;;;5.41;100.00
58771;BME280;44539;42.962;1.596;2023-02-20T21:21:34;97491.50;;;5.56;100.00
58771;BME280;44539;42.962;1.596;2023-02-20T21:24:00;97491.38;;;5.58;100.00
58771;BME280;44539;42.962;1.596;2023-02-20T21:26:25;97482.91;;;5.44;100.00
58771;BME280;44539;42.962;1.596;2023-02-20T21:28:51;97492.28;;;5.37;100.00
58771;BME280;44539;42.962;1.596;2023-02-20T21:31:16;97486.72;;;5.21;100.00
58771;BME280;44539;42.962;1.596;2023-02-20T21:33:47;97488.78;;;5.17;100.00
58771;BME280;44539;42.962;1.596;2023-02-20T21:36:12;97487.59;;;5.00;100.00
58771;BME280;44539;42.962;1.596;2023-02-20T21:38:38;97486.19;;;4.96;100.00
58771;BME280;44539;42.962;1.596;2023-02-20T21:41:03;97484.28;;;4.77;100.00
58771;BME280;44539;42.962;1.596;2023-02-20T21:43:29;97487.19;;;4.74;100.00
58771;BME280;44539;42.962;1.596;2023-02-20T21:46:13;97487.50;;;4.81;100.00
58771;BME280;44539;42.962;1.596;2023-02-20T21:48:38;97483.78;;;4.83;100.00
58771;BME280;44539;42.962;1.596;2023-02-20T21:51:04;97488.03;;;4.75;100.00
58771;BME280;44539;42.962;1.596;2023-02-20T21:53:29;97485.91;;;4.68;100.00
58771;BME280;44539;42.962;1.596;2023-02-20T21:55:55;97493.50;;;4.93;100.00
58771;BME280;44539;42.962;1.596;2023-02-20T21:58:20;97491.94;;;4.80;100.00
58771;BME280;44539;42.962;1.596;2023-02-20T22:01:06;97486.09;;;4.77;100.00
58771;BME280;44539;42.962;1.596;2023-02-20T22:03:31;97485.31;;;4.65;100.00
58771;BME280;44539;42.962;1.596;2023-02-20T22:05:57;97482.25;;;4.60;100.00
58771;BME280;44539;42.962;1.596;2023-02-20T22:08:22;97489.34;;;4.59;100.00
58771;BME280;44539;42.962;1.596;2023-02-20T22:11:06;97489.91;;;4.42;100.00
58771;BME280;44539;42.962;1.596;2023-02-20T22:13:50;97486.00;;;4.36;100.00
58771;BME280;44539;42.962;1.596;2023-02-20T22:16:34;97483.81;;;4.41;100.00
58771;BME280;44539;42.962;1.596;2023-02-20T22:19:18;97490.94;;;4.29;100.00
58771;BME280;44539;42.962;1.596;2023-02-20T22:22:02;97482.38;;;3.95;100.00
58771;BME280;44539;42.962;1.596;2023-02-20T22:24:46;97485.72;;;3.86;100.00
58771;BME280;44539;42.962;1.596;2023-02-20T22:27:30;97490.59;;;4.02;100.00
58771;BME280;44539;42.962;1.596;2023-02-20T22:30:14;97489.31;;;4.17;100.00
58771;BME280;44539;42.962;1.596;2023-02-20T22:32:58;97484.44;;;3.80;100.00
58771;BME280;44539;42.962;1.596;2023-02-20T22:35:42;97481.06;;;3.89;100.00
58771;BME280;44539;42.962;1.596;2023-02-20T22:38:26;97483.09;;;3.86;100.00
58771;BME280;44539;42.962;1.596;2023-02-20T22:41:10;97477.19;;;3.73;100.00
58771;BME280;44539;42.962;1.596;2023-02-20T22:43:54;97479.06;;;3.82;100.00
58771;BME280;44539;42.962;1.596;2023-02-20T22:46:38;97476.91;;;3.87;100.00
58771;BME280;44539;42.962;1.596;2023-02-20T22:49:21;97486.59;;;3.75;100.00
58771;BME280;44539;42.962;1.596;2023-02-20T22:52:06;97480.78;;;3.60;100.00
58771;BME280;44539;42.962;1.596;2023-02-20T22:54:49;97472.41;;;3.66;100.00
58771;BME280;44539;42.962;1.596;2023-02-20T22:57:33;97466.78;;;3.82;100.00
58771;BME280;44539;42.962;1.596;2023-02-20T23:00:18;97468.31;;;3.85;100.00
58771;BME280;44539;42.962;1.596;2023-02-20T23:03:02;97465.56;;;3.86;100.00
58771;BME280;44539;42.962;1.596;2023-02-20T23:05:47;97462.59;;;3.80;100.00
58771;BME280;44539;42.962;1.596;2023-02-20T23:08:31;97461.19;;;3.76;100.00
58771;BME280;44539;42.962;1.596;2023-02-20T23:11:15;97468.84;;;3.67;100.00
58771;BME280;44539;42.962;1.596;2023-02-20T23:13:59;97467.81;;;3.59;100.00
58771;BME280;44539;42.962;1.596;2023-02-20T23:16:43;97465.19;;;3.47;100.00
58771;BME280;44539;42.962;1.596;2023-02-20T23:19:27;97467.81;;;3.47;100.00
58771;BME280;44539;42.962;1.596;2023-02-20T23:22:11;97468.78;;;3.46;100.00
58771;BME280;44539;42.962;1.596;2023-02-20T23:24:55;97462.22;;;3.41;100.00
58771;BME280;44539;42.962;1.596;2023-02-20T23:27:39;97460.44;;;3.30;100.00
58771;BME280;44539;42.962;1.596;2023-02-20T23:30:23;97458.28;;;3.46;100.00
58771;BME280;44539;42.962;1.596;2023-02-20T23:33:07;97458.41;;;3.45;100.00
58771;BME280;44539;42.962;1.596;2023-02-20T23:35:51;97449.97;;;3.19;100.00
58771;BME280;44539;42.962;1.596;2023-02-20T23:38:35;97452.91;;;3.37;100.00
58771;BME280;44539;42.962;1.596;2023-02-20T23:41:19;97451.63;;;3.31;100.00
58771;BME280;44539;42.962;1.596;2023-02-20T23:44:06;97452.34;;;3.33;100.00
58771;BME280;44539;42.962;1.596;2023-02-20T23:46:50;97445.31;;;3.11;100.00
58771;BME280;44539;42.962;1.596;2023-02-20T23:49:34;97446.38;;;3.31;100.00
58771;BME280;44539;42.962;1.596;2023-02-20T23:52:18;97446.19;;;3.55;100.00
58771;BME280;44539;42.962;1.596;2023-02-20T23:55:03;97448.72;;;3.57;100.00
58771;BME280;44539;42.962;1.596;2023-02-20T23:57:47;97448.03;;;3.32;100.00
